createdAt,value
2023-03-14T00:01:13.516Z,98673.75
2023-03-14T00:03:43.172Z,98672.97
2023-03-14T00:06:12.609Z,98663.88
2023-03-14T00:08:41.191Z,98665.69
2023-03-14T00:11:12.963Z,98663.38
2023-03-14T00:13:41.978Z,98657.09
2023-03-14T00:16:11.827Z,98657.78
2023-03-14T00:18:42.736Z,98662.03
2023-03-14T00:21:12.129Z,98669.78
2023-03-14T00:23:42.232Z,98680.19
2023-03-14T00:26:13.127Z,98674.56
2023-03-14T00:28:44.490Z,98684.94
2023-03-14T00:31:16.439Z,98678.69
2023-03-14T00:33:47.375Z,98693.66
2023-03-14T00:36:18.973Z,98676.84
2023-03-14T00:38:49.511Z,98677.56
2023-03-14T00:41:19.200Z,98673.41
2023-03-14T00:43:47.444Z,98671.44
2023-03-14T00:46:15.681Z,98675.09
2023-03-14T00:48:48.054Z,98685.63
2023-03-14T00:51:17.217Z,98682.97
2023-03-14T00:53:46.132Z,98676.03
2023-03-14T00:56:15.984Z,98675.88
2023-03-14T00:58:44.343Z,98667.81
2023-03-14T01:01:16.057Z,98649.66
2023-03-14T01:03:45.473Z,98644.41
2023-03-14T01:06:17.344Z,98643.06
2023-03-14T01:08:46.524Z,98650.97
2023-03-14T01:11:17.825Z,98639.91
2023-03-14T01:13:48.567Z,98640.75
2023-03-14T01:16:17.354Z,98645.38
2023-03-14T01:18:48.327Z,98657.41
2023-03-14T01:21:21.861Z,98648.66
2023-03-14T01:23:50.552Z,98644.06
2023-03-14T01:26:20.968Z,98659.38
2023-03-14T01:28:49.958Z,98651.97
2023-03-14T01:31:19.020Z,98656.25
2023-03-14T01:33:48.206Z,98661.00
2023-03-14T01:36:21.014Z,98658.53
2023-03-14T01:38:49.390Z,98642.53
2023-03-14T01:41:21.404Z,98644.28
2023-03-14T01:43:51.121Z,98647.44
2023-03-14T01:46:40.649Z,98634.84
2023-03-14T01:49:15.456Z,98617.75
2023-03-14T01:51:55.628Z,98626.75
2023-03-14T01:54:30.145Z,98620.84
2023-03-14T01:57:11.048Z,98610.75
2023-03-14T01:59:42.413Z,98602.00
2023-03-14T02:02:15.395Z,98597.25
2023-03-14T02:04:44.562Z,98591.22
2023-03-14T02:07:19.737Z,98576.56
2023-03-14T02:09:59.977Z,98577.75
2023-03-14T02:12:35.563Z,98578.00
2023-03-14T02:15:34.478Z,98564.72
2023-03-14T02:18:08.946Z,98555.16
2023-03-14T02:20:56.594Z,98567.41
2023-03-14T02:23:38.633Z,98538.97
2023-03-14T02:26:12.692Z,98535.69
2023-03-14T02:28:44.029Z,98537.97
2023-03-14T02:31:13.181Z,98540.59
2023-03-14T02:33:42.331Z,98526.91
2023-03-14T02:36:15.470Z,98525.38
2023-03-14T02:38:49.188Z,98529.28
2023-03-14T02:41:19.032Z,98518.88
2023-03-14T02:43:55.883Z,98512.19
2023-03-14T02:46:27.515Z,98514.81
2023-03-14T02:48:59.419Z,98521.63
2023-03-14T02:51:28.369Z,98525.00
2023-03-14T02:53:56.582Z,98523.44
2023-03-14T02:56:27.318Z,98519.88
2023-03-14T02:58:58.773Z,98528.88
2023-03-14T03:01:42.314Z,98547.56
2023-03-14T03:04:10.759Z,98516.38
2023-03-14T03:06:40.253Z,98519.50
2023-03-14T03:09:08.212Z,98528.66
2023-03-14T03:11:37.232Z,98524.31
2023-03-14T03:14:08.061Z,98524.31
2023-03-14T03:16:38.789Z,98526.78
2023-03-14T03:19:07.420Z,98536.53
2023-03-14T03:21:35.892Z,98549.06
2023-03-14T03:24:04.986Z,98523.34
2023-03-14T03:26:35.989Z,98515.94
2023-03-14T03:29:07.605Z,98519.41
2023-03-14T03:31:38.426Z,98496.81
2023-03-14T03:34:06.864Z,98505.22
2023-03-14T03:36:35.687Z,98515.81
2023-03-14T03:39:05.878Z,98510.88
2023-03-14T03:41:34.169Z,98519.41
2023-03-14T03:44:02.842Z,98529.78
2023-03-14T03:46:32.518Z,98513.47
2023-03-14T03:49:01.769Z,98500.63
2023-03-14T03:51:30.639Z,98498.47
2023-03-14T03:53:59.720Z,98495.56
2023-03-14T03:56:35.063Z,98488.28
2023-03-14T03:59:03.143Z,98491.38
2023-03-14T04:01:33.887Z,98488.56
2023-03-14T04:04:02.626Z,98483.25
2023-03-14T04:06:30.926Z,98472.94
2023-03-14T04:09:01.003Z,98486.69
2023-03-14T04:11:43.119Z,98486.13
2023-03-14T04:14:24.441Z,98482.41
2023-03-14T04:17:11.399Z,98477.59
2023-03-14T04:19:44.148Z,98477.13
2023-03-14T04:22:12.525Z,98466.28
2023-03-14T04:24:48.505Z,98471.31
2023-03-14T04:27:16.735Z,98451.69
2023-03-14T04:29:47.034Z,98466.09
2023-03-14T04:32:19.148Z,98463.38
2023-03-14T04:34:49.024Z,98465.56
2023-03-14T04:37:17.120Z,98451.69
2023-03-14T04:39:46.182Z,98438.38
2023-03-14T04:42:21.443Z,98452.63
2023-03-14T04:44:50.448Z,98442.81
2023-03-14T04:47:21.550Z,98448.75
2023-03-14T04:49:51.422Z,98446.06
2023-03-14T04:52:20.188Z,98454.78
2023-03-14T04:54:51.086Z,98439.44
2023-03-14T04:57:19.728Z,98437.78
2023-03-14T04:59:50.609Z,98444.06
2023-03-14T05:02:38.781Z,98446.06
2023-03-14T05:05:21.152Z,98432.19
2023-03-14T05:08:05.622Z,98433.84
2023-03-14T05:10:40.852Z,98431.41
2023-03-14T05:13:26.557Z,98435.09
2023-03-14T05:16:33.205Z,98430.19
2023-03-14T05:19:25.855Z,98432.38
2023-03-14T05:22:20.764Z,98425.34
2023-03-14T05:25:15.805Z,98406.84
2023-03-14T05:28:10.104Z,98407.34
2023-03-14T05:30:51.567Z,98405.91
2023-03-14T05:33:45.597Z,98398.28
2023-03-14T05:36:34.214Z,98415.94
2023-03-14T05:39:19.674Z,98412.28
2023-03-14T05:42:03.944Z,98418.22
2023-03-14T05:45:07.939Z,98413.25
2023-03-14T05:48:06.814Z,98407.78
2023-03-14T05:50:57.159Z,98418.00
2023-03-14T05:53:35.801Z,98411.88
2023-03-14T05:56:32.326Z,98406.53
2023-03-14T05:59:18.798Z,98402.25
2023-03-14T06:02:04.240Z,98401.00
2023-03-14T06:04:44.547Z,98405.34
2023-03-14T06:07:15.551Z,98401.00
2023-03-14T06:09:46.239Z,98404.63
2023-03-14T06:12:19.685Z,98396.06
2023-03-14T06:14:48.081Z,98395.25
2023-03-14T06:17:17.837Z,98393.53
2023-03-14T06:19:55.024Z,98389.72
2023-03-14T06:22:23.016Z,98381.59
2023-03-14T06:24:52.451Z,98393.78
2023-03-14T06:27:21.353Z,98399.22
2023-03-14T06:29:52.976Z,98388.56
2023-03-14T06:32:23.938Z,98389.16
2023-03-14T06:34:54.914Z,98381.06
2023-03-14T06:37:23.191Z,98392.78
2023-03-14T06:39:56.322Z,98398.78
2023-03-14T06:42:44.436Z,98405.22
2023-03-14T06:45:13.197Z,98395.47
2023-03-14T06:47:41.638Z,98404.53
2023-03-14T06:50:11.573Z,98401.75
2023-03-14T06:52:42.223Z,98404.69
2023-03-14T06:55:12.367Z,98386.22
2023-03-14T06:57:44.956Z,98378.94
2023-03-14T07:00:14.645Z,98380.13
2023-03-14T07:02:43.830Z,98383.34
2023-03-14T07:05:30.323Z,98383.91
2023-03-14T07:07:58.552Z,98382.69
2023-03-14T07:10:28.054Z,98380.13
2023-03-14T07:12:56.377Z,98385.69
2023-03-14T07:15:27.579Z,98388.34
2023-03-14T07:17:59.718Z,98393.63
2023-03-14T07:20:28.956Z,98384.78
2023-03-14T07:22:57.843Z,98402.44
2023-03-14T07:25:43.932Z,98382.88
2023-03-14T07:28:11.999Z,98387.41
2023-03-14T07:30:42.262Z,98396.59
2023-03-14T07:33:19.429Z,98398.75
2023-03-14T07:35:49.075Z,98394.41
2023-03-14T07:38:22.369Z,98382.41
2023-03-14T07:41:18.908Z,98376.59
2023-03-14T07:44:05.425Z,98387.97
2023-03-14T07:46:34.927Z,98384.25
2023-03-14T07:49:02.980Z,98384.56
2023-03-14T07:51:31.565Z,98376.59
2023-03-14T07:53:59.901Z,98396.50
2023-03-14T07:56:29.730Z,98389.63
2023-03-14T07:58:59.033Z,98390.34
2023-03-14T08:01:26.994Z,98382.81
2023-03-14T08:03:55.290Z,98385.63
2023-03-14T08:06:23.371Z,98403.28
2023-03-14T08:08:51.537Z,98383.81
2023-03-14T08:11:20.220Z,98377.56
2023-03-14T08:13:50.873Z,98391.94
2023-03-14T08:16:19.402Z,98384.63
2023-03-14T08:18:47.724Z,98380.94
2023-03-14T08:21:17.811Z,98386.19
2023-03-14T08:23:46.871Z,98392.63
2023-03-14T08:26:14.849Z,98391.56
2023-03-14T08:28:42.776Z,98386.00
2023-03-14T08:31:12.056Z,98397.19
2023-03-14T08:33:40.489Z,98386.97
2023-03-14T08:36:09.702Z,98389.53
2023-03-14T08:38:37.981Z,98396.00
2023-03-14T08:41:07.883Z,98398.94
2023-03-14T08:43:36.534Z,98406.03
2023-03-14T08:46:05.850Z,98408.31
2023-03-14T08:48:35.544Z,98406.75
2023-03-14T08:51:08.300Z,98422.94
2023-03-14T08:53:36.810Z,98404.38
2023-03-14T08:56:07.137Z,98442.91
2023-03-14T08:58:38.337Z,98431.09
2023-03-14T09:01:07.050Z,98410.06
2023-03-14T09:03:40.805Z,98403.47
2023-03-14T09:06:11.472Z,98419.44
2023-03-14T09:08:40.070Z,98423.56
2023-03-14T09:11:10.203Z,98407.06
2023-03-14T09:13:38.188Z,98407.72
2023-03-14T09:16:07.275Z,98432.69
2023-03-14T09:18:36.319Z,98430.66
2023-03-14T09:21:06.602Z,98433.97
2023-03-14T09:23:34.899Z,98415.75
2023-03-14T09:26:03.305Z,98423.38
2023-03-14T09:28:34.948Z,98405.03
2023-03-14T09:31:08.901Z,98420.91
2023-03-14T09:33:38.420Z,98411.91
2023-03-14T09:36:09.778Z,98398.13
2023-03-14T09:38:39.957Z,98403.97
2023-03-14T09:41:17.175Z,98432.47
2023-03-14T09:43:47.323Z,98407.97
2023-03-14T09:46:16.696Z,98407.94
2023-03-14T09:48:46.163Z,98425.72
2023-03-14T09:51:18.599Z,98425.75
2023-03-14T09:53:50.082Z,98436.25
2023-03-14T09:56:21.641Z,98431.31
2023-03-14T09:58:54.069Z,98421.59
2023-03-14T10:01:26.973Z,98418.41
2023-03-14T10:03:58.001Z,98410.84
2023-03-14T10:06:30.399Z,98417.81
2023-03-14T10:08:58.908Z,98404.06
2023-03-14T10:11:29.211Z,98419.53
2023-03-14T10:14:09.376Z,98401.19
2023-03-14T10:16:44.631Z,98397.09
2023-03-14T10:19:14.464Z,98416.72
2023-03-14T10:21:45.674Z,98403.09
2023-03-14T10:24:22.947Z,98400.41
2023-03-14T10:26:54.235Z,98402.47
2023-03-14T10:29:23.328Z,98395.63
2023-03-14T10:31:54.871Z,98408.94
2023-03-14T10:34:26.290Z,98406.03
2023-03-14T10:36:57.856Z,98391.97
2023-03-14T10:39:40.227Z,98398.75
2023-03-14T10:42:17.202Z,98393.84
2023-03-14T10:44:46.668Z,98400.19
2023-03-14T10:47:26.694Z,98416.16
2023-03-14T10:49:57.751Z,98411.53
2023-03-14T10:52:31.006Z,98402.09
2023-03-14T10:55:13.718Z,98404.09
2023-03-14T10:57:42.076Z,98411.75
2023-03-14T11:00:17.853Z,98406.94
2023-03-14T11:03:06.701Z,98417.97
2023-03-14T11:05:42.864Z,98414.59
2023-03-14T11:08:20.964Z,98413.69
2023-03-14T11:10:56.119Z,98418.88
2023-03-14T11:13:29.329Z,98417.59
2023-03-14T11:16:08.540Z,98424.25
2023-03-14T11:19:02.322Z,98421.69
2023-03-14T11:21:38.098Z,98418.88
2023-03-14T11:24:21.681Z,98414.22
2023-03-14T11:26:54.621Z,98415.56
2023-03-14T11:29:29.372Z,98421.56
2023-03-14T11:32:01.207Z,98425.78
2023-03-14T11:34:31.606Z,98431.31
2023-03-14T11:37:04.410Z,98423.03
2023-03-14T11:39:40.879Z,98417.53
2023-03-14T11:42:15.080Z,98421.66
2023-03-14T11:44:46.384Z,98413.81
2023-03-14T11:47:19.442Z,98417.00
2023-03-14T11:49:53.006Z,98423.13
2023-03-14T11:52:30.772Z,98427.00
2023-03-14T11:55:07.558Z,98426.44
2023-03-14T11:57:36.307Z,98416.81
2023-03-14T12:00:16.198Z,98416.16
2023-03-14T12:02:52.337Z,98423.72
2023-03-14T12:05:40.065Z,98427.31
2023-03-14T12:08:35.180Z,98427.78
2023-03-14T12:11:11.005Z,98439.25
2023-03-14T12:13:41.284Z,98430.06
2023-03-14T12:16:25.753Z,98428.56
2023-03-14T12:18:55.628Z,98429.94
2023-03-14T12:21:50.325Z,98439.84
2023-03-14T12:24:25.078Z,98427.44
2023-03-14T12:26:57.456Z,98437.25
2023-03-14T12:29:25.829Z,98466.00
2023-03-14T12:32:09.991Z,98539.50
2023-03-14T12:34:43.492Z,98561.63
2023-03-14T12:37:21.115Z,98564.63
2023-03-14T12:40:07.136Z,98573.88
2023-03-14T12:42:56.301Z,98584.44
2023-03-14T12:45:27.334Z,98609.47
2023-03-14T12:48:12.950Z,98633.81
2023-03-14T12:50:45.152Z,98644.66
2023-03-14T12:53:39.943Z,98645.50
2023-03-14T12:56:23.026Z,98669.88
2023-03-14T12:59:04.495Z,98666.59
2023-03-14T13:01:35.975Z,98674.69
2023-03-14T13:04:11.234Z,98704.69
2023-03-14T13:06:54.648Z,98704.66
2023-03-14T13:09:56.634Z,98713.22
2023-03-14T13:12:33.296Z,98722.78
2023-03-14T13:15:03.889Z,98739.94
2023-03-14T13:17:37.850Z,98764.00
2023-03-14T13:20:15.056Z,98762.50
2023-03-14T13:22:48.685Z,98769.09
2023-03-14T13:25:21.909Z,98776.34
2023-03-14T13:27:50.368Z,98780.78
2023-03-14T13:30:22.903Z,98795.63
2023-03-14T13:32:54.827Z,98790.34
2023-03-14T13:35:28.292Z,98805.16
2023-03-14T13:38:17.855Z,98800.38
2023-03-14T13:40:48.732Z,98821.13
2023-03-14T13:43:19.949Z,98810.41
2023-03-14T13:45:52.389Z,98828.88
2023-03-14T13:48:28.876Z,98829.03
2023-03-14T13:51:00.620Z,98834.97
2023-03-14T13:53:30.270Z,98830.16
2023-03-14T13:56:05.207Z,98846.63
2023-03-14T13:58:34.002Z,98847.41
2023-03-14T14:01:11.994Z,98851.81
2023-03-14T14:03:44.499Z,98859.56
2023-03-14T14:06:24.393Z,98871.88
2023-03-14T14:08:54.032Z,98868.09
2023-03-14T14:11:46.850Z,98900.00
2023-03-14T14:14:18.476Z,98915.06
2023-03-14T14:16:48.934Z,98931.56
2023-03-14T14:19:18.457Z,98954.31
2023-03-14T14:21:47.837Z,98944.41
2023-03-14T14:24:17.310Z,98941.91
2023-03-14T14:26:53.477Z,98952.63
2023-03-14T14:29:30.731Z,98962.00
2023-03-14T14:32:03.618Z,98966.63
2023-03-14T14:34:40.168Z,99006.31
2023-03-14T14:37:21.200Z,98989.84
2023-03-14T14:39:49.349Z,98994.44
2023-03-14T14:42:23.140Z,99030.00
2023-03-14T14:44:53.541Z,99028.63
2023-03-14T14:47:24.659Z,99076.16
2023-03-14T14:49:54.724Z,99087.31
2023-03-14T14:52:33.027Z,99074.47
2023-03-14T14:55:03.151Z,99094.44
2023-03-14T14:57:37.544Z,99087.56
2023-03-14T15:00:13.136Z,99097.03
2023-03-14T15:02:46.211Z,99119.91
2023-03-14T15:05:16.763Z,99121.56
2023-03-14T15:07:45.005Z,99135.97
2023-03-14T15:10:18.278Z,99136.19
2023-03-14T15:12:48.271Z,99145.41
2023-03-14T15:15:18.013Z,99155.56
2023-03-14T15:17:46.378Z,99149.50
2023-03-14T15:20:17.617Z,99157.41
2023-03-14T15:22:46.315Z,99168.13
2023-03-14T15:25:36.832Z,99166.84
2023-03-14T15:28:04.640Z,99184.13
2023-03-14T15:30:32.736Z,99191.56
2023-03-14T15:33:01.629Z,99194.59
2023-03-14T15:35:29.514Z,99209.97
2023-03-14T15:37:57.547Z,99227.97
2023-03-14T15:40:27.784Z,99237.34
2023-03-14T15:42:57.771Z,99234.75
2023-03-14T15:45:27.224Z,99231.75
2023-03-14T15:47:56.196Z,99245.28
2023-03-14T15:50:28.765Z,99242.66
2023-03-14T15:52:57.677Z,99244.34
2023-03-14T15:55:26.415Z,99257.66
2023-03-14T15:57:54.930Z,99254.44
2023-03-14T16:00:23.854Z,99275.19
2023-03-14T16:02:53.285Z,99280.22
2023-03-14T16:05:21.453Z,99275.63
2023-03-14T16:07:49.759Z,99292.81
2023-03-14T16:10:18.442Z,99308.31
2023-03-14T16:12:47.771Z,99312.34
2023-03-14T16:15:18.103Z,99319.38
2023-03-14T16:17:49.916Z,99324.91
2023-03-14T16:20:20.407Z,99323.94
2023-03-14T16:22:48.599Z,99323.38
2023-03-14T16:25:19.228Z,99339.69
2023-03-14T16:27:48.293Z,99336.22
2023-03-14T16:30:17.284Z,99345.78
2023-03-14T16:32:47.502Z,99340.66
2023-03-14T16:35:15.646Z,99351.84
2023-03-14T16:37:45.457Z,99359.59
2023-03-14T16:40:16.772Z,99360.69
2023-03-14T16:43:11.448Z,99365.53
2023-03-14T16:45:33.354Z,99371.31
2023-03-14T16:48:01.545Z,99368.13
2023-03-14T16:50:31.189Z,99381.53
2023-03-14T16:53:04.571Z,99387.78
2023-03-14T16:55:34.618Z,99386.53
2023-03-14T16:58:02.569Z,99393.75
2023-03-14T17:00:31.107Z,99413.50
2023-03-14T17:02:59.345Z,99420.81
2023-03-14T17:05:29.649Z,99415.84
2023-03-14T17:07:57.870Z,99422.44
2023-03-14T17:10:27.539Z,99428.50
2023-03-14T17:12:56.099Z,99437.88
2023-03-14T17:15:24.164Z,99439.66
2023-03-14T17:17:53.366Z,99447.38
2023-03-14T17:20:21.472Z,99447.47
2023-03-14T17:22:49.428Z,99469.16
2023-03-14T17:25:17.477Z,99482.84
2023-03-14T17:27:46.779Z,99506.09
2023-03-14T17:30:15.573Z,99490.00
2023-03-14T17:32:46.374Z,99485.25
2023-03-14T17:35:14.363Z,99496.72
2023-03-14T17:37:44.504Z,99496.06
2023-03-14T17:40:13.104Z,99506.88
2023-03-14T17:42:41.395Z,99503.94
2023-03-14T17:45:12.176Z,99514.09
2023-03-14T17:47:40.651Z,99532.00
2023-03-14T17:50:12.813Z,99544.38
2023-03-14T17:52:41.829Z,99550.72
2023-03-14T17:55:12.091Z,99563.69
2023-03-14T17:57:42.760Z,99570.72
2023-03-14T18:00:14.524Z,99586.06
2023-03-14T18:02:44.093Z,99594.41
2023-03-14T18:05:12.089Z,99593.56
2023-03-14T18:07:42.100Z,99611.59
2023-03-14T18:10:12.156Z,99617.31
2023-03-14T18:12:40.626Z,99630.91
2023-03-14T18:15:09.632Z,99633.41
2023-03-14T18:17:41.802Z,99630.34
2023-03-14T18:20:14.530Z,99640.78
2023-03-14T18:22:43.098Z,99653.28
2023-03-14T18:25:12.499Z,99657.22
2023-03-14T18:27:40.472Z,99662.00
2023-03-14T18:30:09.657Z,99669.13
2023-03-14T18:32:38.101Z,99681.50
2023-03-14T18:35:09.328Z,99689.97
2023-03-14T18:37:37.400Z,99695.56
2023-03-14T18:40:08.632Z,99689.50
2023-03-14T18:42:36.642Z,99702.38
2023-03-14T18:45:06.196Z,99701.75
2023-03-14T18:47:36.731Z,99711.75
2023-03-14T18:50:05.439Z,99717.34
2023-03-14T18:52:36.734Z,99713.19
2023-03-14T18:55:09.055Z,99717.50
2023-03-14T18:57:37.358Z,99716.41
2023-03-14T19:00:09.822Z,99722.13
2023-03-14T19:02:38.287Z,99722.72
2023-03-14T19:05:09.093Z,99727.72
2023-03-14T19:07:38.320Z,99730.22
2023-03-14T19:10:07.180Z,99742.63
2023-03-14T19:12:35.139Z,99741.75
2023-03-14T19:15:03.487Z,99733.78
2023-03-14T19:17:31.419Z,99740.69
2023-03-14T19:19:59.242Z,99745.44
2023-03-14T19:22:27.131Z,99749.75
2023-03-14T19:24:57.706Z,99755.22
2023-03-14T19:27:28.863Z,99760.25
2023-03-14T19:29:57.203Z,99767.25
2023-03-14T19:32:26.375Z,99770.22
2023-03-14T19:34:54.791Z,99776.88
2023-03-14T19:37:23.388Z,99779.50
2023-03-14T19:39:51.596Z,99773.81
2023-03-14T19:42:21.324Z,99780.81
2023-03-14T19:44:49.579Z,99797.38
2023-03-14T19:47:17.625Z,99791.06
2023-03-14T19:49:45.603Z,99796.31
2023-03-14T19:52:18.683Z,99806.66
2023-03-14T19:54:47.299Z,99815.47
2023-03-14T19:57:15.676Z,99823.09
2023-03-14T19:59:46.698Z,99822.16
2023-03-14T20:02:15.885Z,99828.66
2023-03-14T20:04:46.241Z,99834.03
2023-03-14T20:07:15.367Z,99841.91
2023-03-14T20:09:43.587Z,99850.22
2023-03-14T20:12:14.488Z,99847.25
2023-03-14T20:14:43.911Z,99857.13
2023-03-14T20:17:14.020Z,99869.25
2023-03-14T20:19:43.156Z,99870.56
2023-03-14T20:22:11.414Z,99874.75
2023-03-14T20:24:40.504Z,99873.53
2023-03-14T20:27:08.802Z,99886.63
2023-03-14T20:29:39.534Z,99889.06
2023-03-14T20:32:09.543Z,99895.16
2023-03-14T20:34:40.123Z,99908.53
2023-03-14T20:37:13.456Z,99933.06
2023-03-14T20:39:44.300Z,99921.91
2023-03-14T20:42:12.669Z,99927.00
2023-03-14T20:44:42.793Z,99919.34
2023-03-14T20:47:10.817Z,99916.53
2023-03-14T20:49:42.644Z,99914.56
2023-03-14T20:52:12.042Z,99910.50
2023-03-14T20:54:42.454Z,99919.31
2023-03-14T20:57:15.276Z,99920.81
2023-03-14T20:59:43.446Z,99928.56
2023-03-14T21:02:11.848Z,99934.84
2023-03-14T21:04:39.968Z,99935.78
2023-03-14T21:07:09.686Z,99955.16
2023-03-14T21:09:38.164Z,99958.59
2023-03-14T21:12:06.707Z,99962.91
2023-03-14T21:14:35.221Z,99965.63
2023-03-14T21:17:05.382Z,99972.28
2023-03-14T21:19:35.521Z,99975.44
2023-03-14T21:22:05.690Z,99987.09
2023-03-14T21:24:35.383Z,99994.28
2023-03-14T21:27:03.572Z,99991.94
2023-03-14T21:29:37.318Z,99994.28
2023-03-14T21:32:05.871Z,100001.19
2023-03-14T21:34:34.018Z,99999.41
2023-03-14T21:37:04.398Z,100003.09
2023-03-14T21:39:32.730Z,99994.66
2023-03-14T21:42:04.486Z,99989.13
2023-03-14T21:44:37.025Z,100003.09
2023-03-14T21:47:09.102Z,100003.50
2023-03-14T21:49:39.004Z,100003.28
2023-03-14T21:52:11.468Z,100020.25
2023-03-14T21:54:39.635Z,100015.97
2023-03-14T21:57:08.970Z,100021.53
2023-03-14T21:59:39.535Z,100026.88
2023-03-14T22:02:12.691Z,100023.41
2023-03-14T22:04:41.120Z,100024.56
2023-03-14T22:07:10.901Z,100026.56
2023-03-14T22:09:43.498Z,100037.84
2023-03-14T22:12:17.356Z,100038.69
2023-03-14T22:14:45.633Z,100044.97
2023-03-14T22:17:13.518Z,100043.63
2023-03-14T22:19:41.590Z,100045.31
2023-03-14T22:22:09.948Z,100056.38
2023-03-14T22:24:37.925Z,100061.72
2023-03-14T22:27:08.589Z,100057.44
2023-03-14T22:29:38.646Z,100053.06
2023-03-14T22:32:08.050Z,100065.72
2023-03-14T22:34:36.468Z,100067.81
2023-03-14T22:37:07.376Z,100072.41
2023-03-14T22:39:37.830Z,100080.16
2023-03-14T22:42:07.984Z,100085.16
2023-03-14T22:44:35.990Z,100087.28
2023-03-14T22:47:08.470Z,100091.13
2023-03-14T22:49:36.817Z,100099.81
2023-03-14T22:52:06.277Z,100101.09
2023-03-14T22:54:34.190Z,100111.66
2023-03-14T22:57:02.268Z,100114.28
2023-03-14T22:59:30.635Z,100127.03
2023-03-14T23:01:59.565Z,100124.72
2023-03-14T23:04:30.090Z,100130.19
2023-03-14T23:06:58.432Z,100135.41
2023-03-14T23:09:26.984Z,100140.31
2023-03-14T23:11:55.216Z,100142.09
2023-03-14T23:14:23.914Z,100150.88
2023-03-14T23:16:55.783Z,100154.00
2023-03-14T23:19:26.280Z,100156.22
2023-03-14T23:21:57.166Z,100160.91
2023-03-14T23:24:25.131Z,100164.38
2023-03-14T23:26:54.091Z,100160.09
2023-03-14T23:29:22.229Z,100162.88
2023-03-14T23:31:54.466Z,100178.47
2023-03-14T23:34:22.461Z,100182.97
2023-03-14T23:36:51.164Z,100179.22
2023-03-14T23:39:25.809Z,100180.38
2023-03-14T23:41:54.437Z,100184.97
2023-03-14T23:44:23.060Z,100186.00
2023-03-14T23:46:51.946Z,100192.56
2023-03-14T23:49:20.525Z,100189.69
2023-03-14T23:51:51.302Z,100193.66
2023-03-14T23:54:19.636Z,100190.56
2023-03-14T23:56:49.525Z,100191.59
2023-03-14T23:59:17.706Z,100197.94
